createdAt,value
2022-12-15T00:02:18.544Z,94193.81
2022-12-15T00:05:04.021Z,94098.13
2022-12-15T00:07:49.205Z,94182.88
2022-12-15T00:10:34.481Z,94181.94
2022-12-15T00:13:19.779Z,94183.16
2022-12-15T00:16:06.289Z,94121.63
2022-12-15T00:18:52.017Z,94205.56
2022-12-15T00:21:37.352Z,94220.63
2022-12-15T00:24:22.653Z,94215.13
2022-12-15T00:27:07.830Z,94231.34
2022-12-15T00:29:52.995Z,94247.28
2022-12-15T00:32:38.153Z,94208.81
2022-12-15T00:35:23.902Z,94189.00
2022-12-15T00:38:08.949Z,94224.59
2022-12-15T00:40:35.972Z,94202.66
2022-12-15T00:43:03.055Z,94196.66
2022-12-15T00:45:48.573Z,94193.97
2022-12-15T00:48:15.710Z,94182.84
2022-12-15T00:50:53.867Z,94170.41
2022-12-15T00:53:40.966Z,94166.03
2022-12-15T00:56:26.664Z,94159.03
2022-12-15T00:59:12.359Z,94166.16
2022-12-15T01:01:58.255Z,94154.41
2022-12-15T01:04:43.821Z,94149.88
2022-12-15T01:07:29.958Z,94117.41
2022-12-15T01:10:15.782Z,94159.03
2022-12-15T01:13:01.063Z,94173.19
2022-12-15T01:15:46.506Z,94148.28
2022-12-15T01:18:31.591Z,94132.09
2022-12-15T01:21:00.622Z,94134.59
2022-12-15T01:23:28.082Z,94158.88
2022-12-15T01:25:55.948Z,94100.72
2022-12-15T01:28:23.542Z,94101.91
2022-12-15T01:30:50.608Z,94143.94
2022-12-15T01:33:19.277Z,94163.81
2022-12-15T01:35:54.597Z,94163.38
2022-12-15T01:38:21.545Z,94131.59
2022-12-15T01:40:53.648Z,94145.78
2022-12-15T01:43:23.706Z,94054.03
2022-12-15T01:45:54.171Z,94088.31
2022-12-15T01:48:28.655Z,94151.16
2022-12-15T01:51:10.511Z,94124.66
2022-12-15T01:53:51.536Z,94126.41
2022-12-15T01:56:20.697Z,94079.19
2022-12-15T01:58:49.615Z,94088.66
2022-12-15T02:01:16.547Z,94025.28
2022-12-15T02:03:45.101Z,94106.09
2022-12-15T02:06:12.357Z,94103.53
2022-12-15T02:08:40.607Z,94112.16
2022-12-15T02:11:45.295Z,94102.50
2022-12-15T02:14:19.343Z,94099.06
2022-12-15T02:17:07.990Z,94113.66
2022-12-15T02:19:34.639Z,94100.31
2022-12-15T02:22:26.044Z,94103.94
2022-12-15T02:24:55.812Z,94096.72
2022-12-15T02:28:07.076Z,94084.00
2022-12-15T02:31:10.137Z,94114.59
2022-12-15T02:33:53.370Z,94090.69
2022-12-15T02:36:43.099Z,94109.47
2022-12-15T02:39:12.826Z,94104.94
2022-12-15T02:41:45.104Z,94105.66
2022-12-15T02:44:14.771Z,94111.03
2022-12-15T02:47:12.563Z,94071.75
2022-12-15T02:50:00.804Z,94151.00
2022-12-15T02:52:42.609Z,94133.53
2022-12-15T02:55:34.253Z,94121.88
2022-12-15T02:58:12.503Z,94121.97
2022-12-15T03:00:45.414Z,94132.44
2022-12-15T03:03:20.588Z,94083.53
2022-12-15T03:05:53.415Z,94143.69
2022-12-15T03:08:21.185Z,94148.31
2022-12-15T03:10:51.312Z,94119.28
2022-12-15T03:13:18.079Z,94136.03
2022-12-15T03:15:45.034Z,94142.94
2022-12-15T03:18:12.619Z,94081.94
2022-12-15T03:20:42.006Z,94126.25
2022-12-15T03:23:08.945Z,94090.53
2022-12-15T03:25:35.806Z,94130.03
2022-12-15T03:28:02.506Z,94143.94
2022-12-15T03:30:29.284Z,94134.63
2022-12-15T03:32:56.007Z,94123.47
2022-12-15T03:35:23.119Z,94107.09
2022-12-15T03:37:49.925Z,94116.06
2022-12-15T03:40:16.896Z,94122.28
2022-12-15T03:42:49.694Z,94136.41
2022-12-15T03:45:24.977Z,94130.13
2022-12-15T03:47:52.615Z,94155.03
2022-12-15T03:50:22.471Z,94162.34
2022-12-15T03:53:00.550Z,94088.72
2022-12-15T03:55:30.905Z,94138.69
2022-12-15T03:57:59.403Z,94105.59
2022-12-15T04:00:27.102Z,94163.16
2022-12-15T04:02:54.351Z,94181.13
2022-12-15T04:05:27.179Z,94171.88
2022-12-15T04:07:55.128Z,94147.56
2022-12-15T04:10:27.385Z,94158.56
2022-12-15T04:12:59.280Z,94170.72
2022-12-15T04:15:27.155Z,94171.13
2022-12-15T04:17:54.393Z,94165.66
2022-12-15T04:20:22.063Z,94148.75
2022-12-15T04:22:50.587Z,94167.44
2022-12-15T04:25:39.720Z,94117.28
2022-12-15T04:28:25.675Z,94153.78
2022-12-15T04:31:16.729Z,94150.56
2022-12-15T04:34:07.465Z,94164.72
2022-12-15T04:36:54.464Z,94142.53
2022-12-15T04:39:40.034Z,94161.19
2022-12-15T04:42:25.171Z,94162.72
2022-12-15T04:45:17.005Z,94172.28
2022-12-15T04:48:05.660Z,94174.06
2022-12-15T04:50:51.046Z,94165.56
2022-12-15T04:53:37.130Z,94161.06
2022-12-15T04:56:23.272Z,94178.78
2022-12-15T04:59:09.810Z,94135.56
2022-12-15T05:01:56.624Z,94210.47
2022-12-15T05:04:43.422Z,94193.19
2022-12-15T05:07:29.782Z,94099.66
2022-12-15T05:10:15.801Z,94179.91
2022-12-15T05:13:03.077Z,94236.56
2022-12-15T05:15:51.060Z,94159.44
2022-12-15T05:18:37.983Z,94137.06
2022-12-15T05:21:23.695Z,94225.34
2022-12-15T05:24:10.479Z,94279.31
2022-12-15T05:26:57.080Z,94200.31
2022-12-15T05:29:43.162Z,94284.91
2022-12-15T05:32:10.426Z,94280.81
2022-12-15T05:34:38.385Z,94204.25
2022-12-15T05:37:07.147Z,94234.56
2022-12-15T05:39:34.706Z,94284.94
2022-12-15T05:42:01.938Z,94313.91
2022-12-15T05:44:29.276Z,94301.88
2022-12-15T05:46:57.256Z,94313.97
2022-12-15T05:49:24.633Z,94285.94
2022-12-15T05:51:51.856Z,94191.63
2022-12-15T05:54:20.325Z,94310.75
2022-12-15T05:56:50.264Z,94308.16
2022-12-15T05:59:19.213Z,94352.09
2022-12-15T06:01:47.204Z,94276.56
2022-12-15T06:04:14.790Z,94289.38
2022-12-15T06:06:41.988Z,94357.03
2022-12-15T06:09:14.274Z,94342.88
2022-12-15T06:11:41.011Z,94367.44
2022-12-15T06:14:09.301Z,94311.03
2022-12-15T06:16:42.642Z,94302.47
2022-12-15T06:19:17.232Z,94365.56
2022-12-15T06:21:44.869Z,94330.88
2022-12-15T06:24:11.909Z,94335.03
2022-12-15T06:26:40.095Z,94365.53
2022-12-15T06:29:09.086Z,94310.56
2022-12-15T06:31:37.219Z,94314.34
2022-12-15T06:34:08.920Z,94315.53
2022-12-15T06:36:36.316Z,94275.44
2022-12-15T06:39:05.481Z,94263.91
2022-12-15T06:41:33.191Z,94332.66
2022-12-15T06:44:01.005Z,94396.03
2022-12-15T06:46:29.605Z,94379.06
2022-12-15T06:48:57.304Z,94345.13
2022-12-15T06:51:27.456Z,94353.50
2022-12-15T06:53:55.519Z,94363.53
2022-12-15T06:56:33.148Z,94347.56
2022-12-15T06:59:02.273Z,94335.56
2022-12-15T07:01:30.312Z,94413.47
2022-12-15T07:04:00.127Z,94309.44
2022-12-15T07:06:28.392Z,94441.19
2022-12-15T07:08:56.912Z,94438.66
2022-12-15T07:11:24.384Z,94446.47
2022-12-15T07:13:54.726Z,94440.81
2022-12-15T07:16:22.945Z,94432.34
2022-12-15T07:18:50.445Z,94429.66
2022-12-15T07:21:17.953Z,94463.13
2022-12-15T07:23:54.706Z,94433.03
2022-12-15T07:26:22.556Z,94428.09
2022-12-15T07:28:49.636Z,94451.94
2022-12-15T07:31:16.946Z,94441.59
2022-12-15T07:33:44.172Z,94417.72
2022-12-15T07:36:11.089Z,94410.31
2022-12-15T07:38:38.347Z,94454.47
2022-12-15T07:41:06.947Z,94450.03
2022-12-15T07:43:35.049Z,94397.06
2022-12-15T07:46:02.654Z,94482.31
2022-12-15T07:48:29.763Z,94394.81
2022-12-15T07:51:07.342Z,94469.38
2022-12-15T07:53:36.649Z,94486.09
2022-12-15T07:56:07.859Z,94487.72
2022-12-15T07:58:35.658Z,94489.53
2022-12-15T08:01:08.160Z,94415.59
2022-12-15T08:03:37.321Z,94462.69
2022-12-15T08:06:11.559Z,94500.69
2022-12-15T08:08:39.286Z,94419.31
2022-12-15T08:11:07.632Z,94348.97
2022-12-15T08:16:21.906Z,94499.22
2022-12-15T08:18:49.954Z,94483.13
2022-12-15T08:21:17.581Z,94494.59
2022-12-15T08:23:44.621Z,94513.13
2022-12-15T08:26:14.085Z,94528.53
2022-12-15T08:28:41.384Z,94523.22
2022-12-15T08:31:14.591Z,94506.75
2022-12-15T08:33:42.521Z,94541.47
2022-12-15T08:36:11.799Z,94502.94
2022-12-15T08:38:40.050Z,94536.03
2022-12-15T08:41:09.056Z,94515.44
2022-12-15T08:43:35.927Z,94537.63
2022-12-15T08:46:02.774Z,94538.69
2022-12-15T08:48:30.229Z,94543.22
2022-12-15T08:50:57.676Z,94545.75
2022-12-15T08:53:32.334Z,94542.34
2022-12-15T08:56:12.640Z,94540.81
2022-12-15T08:58:39.810Z,94549.00
2022-12-15T09:01:09.793Z,94534.22
2022-12-15T09:03:37.301Z,94496.22
2022-12-15T09:06:11.630Z,94485.91
2022-12-15T09:08:38.303Z,94534.38
2022-12-15T09:11:07.844Z,94533.66
2022-12-15T09:13:35.492Z,94531.94
2022-12-15T09:16:10.991Z,94490.75
2022-12-15T09:18:38.297Z,94477.47
2022-12-15T09:21:07.600Z,94502.31
2022-12-15T09:23:36.613Z,94462.31
2022-12-15T09:26:05.414Z,94453.47
2022-12-15T09:28:32.728Z,94520.94
2022-12-15T09:31:16.915Z,94533.94
2022-12-15T09:33:45.185Z,94498.28
2022-12-15T09:36:13.391Z,94534.59
2022-12-15T09:38:41.943Z,94561.53
2022-12-15T09:41:17.693Z,94552.75
2022-12-15T09:44:00.972Z,94548.34
2022-12-15T09:46:50.583Z,94492.97
2022-12-15T09:49:36.018Z,94546.81
2022-12-15T09:52:11.685Z,94464.81
2022-12-15T09:54:42.246Z,94557.25
2022-12-15T09:57:25.343Z,94524.31
2022-12-15T10:00:22.283Z,94553.81
2022-12-15T10:03:11.152Z,94550.56
2022-12-15T10:06:16.751Z,94543.22
2022-12-15T10:08:50.502Z,94464.91
2022-12-15T10:11:24.385Z,94553.69
2022-12-15T10:14:22.990Z,94550.75
2022-12-15T10:17:23.029Z,94505.63
2022-12-15T10:20:02.552Z,94526.44
2022-12-15T10:22:36.860Z,94539.63
2022-12-15T10:25:30.045Z,94541.81
2022-12-15T10:28:10.933Z,94560.03
2022-12-15T10:31:00.257Z,94559.41
2022-12-15T10:33:33.116Z,94527.16
2022-12-15T10:36:09.107Z,94565.88
2022-12-15T10:38:42.674Z,94543.53
2022-12-15T10:41:17.852Z,94497.28
2022-12-15T10:46:37.033Z,94566.63
2022-12-15T10:49:06.903Z,94563.44
2022-12-15T10:51:37.532Z,94526.22
2022-12-15T10:54:13.395Z,94565.09
2022-12-15T10:56:52.133Z,94561.19
2022-12-15T10:59:26.420Z,94548.41
2022-12-15T11:01:53.781Z,94552.31
2022-12-15T11:04:32.223Z,94558.75
2022-12-15T11:07:01.182Z,94571.44
2022-12-15T11:09:35.920Z,94568.88
2022-12-15T11:12:39.511Z,94513.97
2022-12-15T11:15:33.673Z,94566.84
2022-12-15T11:18:22.995Z,94568.66
2022-12-15T11:21:02.806Z,94556.66
2022-12-15T11:23:32.515Z,94561.59
2022-12-15T11:26:07.274Z,94570.28
2022-12-15T11:28:48.659Z,94575.66
2022-12-15T11:31:25.373Z,94530.00
2022-12-15T11:33:55.601Z,94497.22
2022-12-15T11:37:00.634Z,94572.22
2022-12-15T11:39:46.564Z,94580.75
2022-12-15T11:42:49.738Z,94511.81
2022-12-15T11:45:52.383Z,94462.09
2022-12-15T11:48:22.554Z,94537.53
2022-12-15T11:50:56.522Z,94509.41
2022-12-15T11:53:46.393Z,94457.91
2022-12-15T11:56:23.892Z,94574.13
2022-12-15T11:59:36.505Z,94574.88
2022-12-15T12:02:28.008Z,94570.81
2022-12-15T12:05:30.499Z,94584.00
2022-12-15T12:08:15.262Z,94579.03
2022-12-15T12:11:00.749Z,94586.50
2022-12-15T12:13:42.802Z,94598.59
2022-12-15T12:16:28.366Z,94606.63
2022-12-15T12:19:02.839Z,94578.09
2022-12-15T12:21:37.998Z,94552.53
2022-12-15T12:24:16.895Z,94589.94
2022-12-15T12:26:50.255Z,94567.44
2022-12-15T12:29:39.202Z,94582.91
2022-12-15T12:32:19.742Z,94553.09
2022-12-15T12:35:32.127Z,94499.56
2022-12-15T12:38:11.287Z,94583.91
2022-12-15T12:40:40.678Z,94622.66
2022-12-15T12:43:14.045Z,94624.91
2022-12-15T12:45:55.448Z,94629.41
2022-12-15T12:48:56.459Z,94594.88
2022-12-15T12:51:34.354Z,94609.78
2022-12-15T12:54:02.220Z,94618.38
2022-12-15T12:56:40.242Z,94631.13
2022-12-15T12:59:29.174Z,94636.50
2022-12-15T13:02:31.561Z,94524.28
2022-12-15T13:04:59.557Z,94637.25
2022-12-15T13:07:41.090Z,94606.25
2022-12-15T13:10:08.155Z,94619.13
2022-12-15T13:12:52.984Z,94630.56
2022-12-15T13:15:40.071Z,94633.06
2022-12-15T13:18:18.994Z,94639.47
2022-12-15T13:20:51.415Z,94596.13
2022-12-15T13:23:24.850Z,94646.69
2022-12-15T13:25:57.850Z,94642.25
2022-12-15T13:28:42.851Z,94542.50
2022-12-15T13:31:19.531Z,94648.19
2022-12-15T13:33:50.026Z,94653.03
2022-12-15T13:36:41.680Z,94647.13
2022-12-15T13:39:17.397Z,94657.78
2022-12-15T13:42:07.889Z,94658.59
2022-12-15T13:44:45.471Z,94545.91
2022-12-15T13:47:27.397Z,94627.94
2022-12-15T13:50:01.879Z,94667.81
2022-12-15T13:53:17.789Z,94669.94
2022-12-15T13:55:51.053Z,94603.66
2022-12-15T13:58:20.279Z,94674.63
2022-12-15T14:00:58.123Z,94563.16
2022-12-15T14:03:26.364Z,94642.47
2022-12-15T14:05:59.657Z,94636.84
2022-12-15T14:08:30.549Z,94631.44
2022-12-15T14:11:00.224Z,94602.16
2022-12-15T14:13:40.618Z,94639.00
2022-12-15T14:16:19.610Z,94657.16
2022-12-15T14:19:12.075Z,94712.69
2022-12-15T14:21:41.130Z,94691.81
2022-12-15T14:24:40.889Z,94713.31
2022-12-15T14:27:08.631Z,94685.91
2022-12-15T14:29:35.736Z,94642.13
2022-12-15T14:32:03.026Z,94646.97
2022-12-15T14:34:39.327Z,94631.19
2022-12-15T14:37:12.397Z,94723.78
2022-12-15T14:39:46.137Z,94696.94
2022-12-15T14:42:23.266Z,94733.47
2022-12-15T14:44:54.924Z,94720.13
2022-12-15T14:47:29.184Z,94713.66
2022-12-15T14:49:58.240Z,94719.22
2022-12-15T14:52:35.608Z,94656.09
2022-12-15T14:55:05.245Z,94658.38
2022-12-15T14:57:44.914Z,94747.25
2022-12-15T15:00:32.192Z,94745.22
2022-12-15T15:03:09.370Z,94542.44
2022-12-15T15:05:57.979Z,94748.69
2022-12-15T15:08:35.614Z,94707.84
2022-12-15T15:11:21.605Z,94718.28
2022-12-15T15:13:48.499Z,94765.97
2022-12-15T15:16:18.548Z,94774.25
2022-12-15T15:18:49.915Z,94686.44
2022-12-15T15:21:24.039Z,94747.38
2022-12-15T15:24:02.038Z,94732.34
2022-12-15T15:26:29.899Z,94757.09
2022-12-15T15:28:57.541Z,94773.16
2022-12-15T15:31:41.512Z,94771.34
2022-12-15T15:34:08.979Z,94782.81
2022-12-15T15:36:38.366Z,94793.09
2022-12-15T15:39:14.075Z,94781.69
2022-12-15T15:41:40.825Z,94766.38
2022-12-15T15:44:14.773Z,94766.97
2022-12-15T15:46:47.816Z,94755.81
2022-12-15T15:49:18.120Z,94720.53
2022-12-15T15:51:45.162Z,94741.00
2022-12-15T15:54:16.063Z,94736.75
2022-12-15T15:56:42.747Z,94792.84
2022-12-15T15:59:17.864Z,94699.97
2022-12-15T16:01:47.572Z,94796.94
2022-12-15T16:04:14.957Z,94794.31
2022-12-15T16:06:47.034Z,94772.16
2022-12-15T16:09:19.145Z,94794.66
2022-12-15T16:11:47.004Z,94756.91
2022-12-15T16:14:16.450Z,94780.25
2022-12-15T16:16:43.724Z,94807.88
2022-12-15T16:19:12.165Z,94762.50
2022-12-15T16:21:43.759Z,94781.88
2022-12-15T16:24:16.195Z,94809.59
2022-12-15T16:26:50.052Z,94819.81
2022-12-15T16:29:19.055Z,94815.50
2022-12-15T16:31:46.124Z,94776.84
2022-12-15T16:34:14.627Z,94799.88
2022-12-15T16:36:41.589Z,94801.81
2022-12-15T16:39:27.578Z,94819.19
2022-12-15T16:41:56.132Z,94813.09
2022-12-15T16:44:23.921Z,94827.59
2022-12-15T16:46:52.885Z,94843.41
2022-12-15T16:49:20.080Z,94834.78
2022-12-15T16:51:49.398Z,94741.56
2022-12-15T16:54:27.350Z,94817.88
2022-12-15T16:56:57.365Z,94838.75
2022-12-15T16:59:35.712Z,94842.56
2022-12-15T17:02:21.929Z,94790.75
2022-12-15T17:04:48.774Z,94818.19
2022-12-15T17:07:19.992Z,94834.19
2022-12-15T17:09:49.152Z,94854.06
2022-12-15T17:12:18.252Z,94828.03
2022-12-15T17:14:45.795Z,94823.50
2022-12-15T17:17:18.226Z,94838.41
2022-12-15T17:20:11.719Z,94851.22
2022-12-15T17:22:33.358Z,94841.22
2022-12-15T17:25:00.857Z,94851.00
2022-12-15T17:27:29.788Z,94872.84
2022-12-15T17:29:59.024Z,94864.00
2022-12-15T17:32:25.816Z,94876.66
2022-12-15T17:34:52.560Z,94866.69
2022-12-15T17:37:19.527Z,94884.50
2022-12-15T17:39:51.417Z,94872.59
2022-12-15T17:42:20.197Z,94892.34
2022-12-15T17:44:48.529Z,94895.72
2022-12-15T17:47:16.645Z,94867.78
2022-12-15T17:49:44.127Z,94879.75
2022-12-15T17:52:29.505Z,94848.16
2022-12-15T17:54:57.230Z,94904.91
2022-12-15T17:57:24.068Z,94869.28
2022-12-15T17:59:50.681Z,94897.41
2022-12-15T18:02:17.522Z,94894.59
2022-12-15T18:04:44.715Z,94851.56
2022-12-15T18:07:23.203Z,94881.59
2022-12-15T18:09:52.078Z,94876.47
2022-12-15T18:12:27.090Z,94868.63
2022-12-15T18:14:55.914Z,94845.34
2022-12-15T18:17:23.904Z,94884.34
2022-12-15T18:19:50.733Z,94881.63
2022-12-15T18:22:24.567Z,94881.75
2022-12-15T18:24:53.119Z,94831.09
2022-12-15T18:27:25.053Z,94805.94
2022-12-15T18:29:52.501Z,94892.94
2022-12-15T18:32:21.793Z,94843.00
2022-12-15T18:34:48.648Z,94889.09
2022-12-15T18:37:17.456Z,94878.03
2022-12-15T18:39:45.213Z,94898.72
2022-12-15T18:42:17.859Z,94896.34
2022-12-15T18:44:50.510Z,94893.13
2022-12-15T18:47:20.555Z,94890.53
2022-12-15T18:49:47.377Z,94829.59
2022-12-15T18:52:22.711Z,94891.09
2022-12-15T18:54:51.481Z,94903.97
2022-12-15T18:57:36.055Z,94891.56
2022-12-15T19:00:17.463Z,94827.72
2022-12-15T19:02:44.346Z,94887.53
2022-12-15T19:05:27.323Z,94865.28
2022-12-15T19:08:27.523Z,94869.53
2022-12-15T19:11:01.435Z,94840.19
2022-12-15T19:13:31.741Z,94883.81
2022-12-15T19:16:00.722Z,94885.19
2022-12-15T19:18:46.040Z,94883.06
2022-12-15T19:21:48.567Z,94862.81
2022-12-15T19:24:44.183Z,94887.69
2022-12-15T19:27:23.622Z,94866.16
2022-12-15T19:29:51.069Z,94906.47
2022-12-15T19:32:17.971Z,94879.50
2022-12-15T19:34:45.496Z,94880.94
2022-12-15T19:37:22.858Z,94904.47
2022-12-15T19:39:49.819Z,94913.59
2022-12-15T19:42:21.607Z,94911.66
2022-12-15T19:44:48.502Z,94920.59
2022-12-15T19:47:16.362Z,94922.00
2022-12-15T19:49:43.925Z,94920.78
2022-12-15T19:52:17.231Z,94881.25
2022-12-15T19:54:46.667Z,94922.72
2022-12-15T19:57:15.627Z,94906.81
2022-12-15T19:59:42.732Z,94919.72
2022-12-15T20:02:17.776Z,94936.22
2022-12-15T20:04:45.129Z,94913.38
2022-12-15T20:07:32.021Z,94934.50
2022-12-15T20:09:58.819Z,94941.84
2022-12-15T20:12:26.110Z,94944.25
2022-12-15T20:14:52.761Z,94929.53
2022-12-15T20:17:19.506Z,94921.06
2022-12-15T20:19:46.298Z,94929.72
2022-12-15T20:22:18.328Z,94944.50
2022-12-15T20:24:46.274Z,94924.91
2022-12-15T20:27:15.784Z,94937.59
2022-12-15T20:29:43.081Z,94893.44
2022-12-15T20:32:19.624Z,94931.44
2022-12-15T20:34:47.288Z,94923.09
2022-12-15T20:37:21.989Z,94930.09
2022-12-15T20:39:52.568Z,94921.75
2022-12-15T20:42:22.913Z,94908.53
2022-12-15T20:44:49.796Z,94907.13
2022-12-15T20:47:22.468Z,94905.53
2022-12-15T20:49:51.688Z,94868.03
2022-12-15T20:52:25.297Z,94909.31
2022-12-15T20:54:53.506Z,94889.56
2022-12-15T20:57:20.764Z,94901.63
2022-12-15T20:59:47.778Z,94897.97
2022-12-15T21:02:20.316Z,94910.97
2022-12-15T21:04:47.614Z,94874.13
2022-12-15T21:07:14.918Z,94941.56
2022-12-15T21:09:42.100Z,94914.97
2022-12-15T21:12:19.506Z,94909.09
2022-12-15T21:14:46.501Z,94928.22
2022-12-15T21:17:25.943Z,94924.00
2022-12-15T21:19:52.879Z,94938.25
2022-12-15T21:22:27.200Z,94932.13
2022-12-15T21:24:54.904Z,94943.28
2022-12-15T21:27:22.029Z,94941.81
2022-12-15T21:29:52.613Z,94893.69
2022-12-15T21:32:20.359Z,94932.50
2022-12-15T21:34:47.011Z,94940.13
2022-12-15T21:37:28.248Z,94935.09
2022-12-15T21:39:56.469Z,94928.19
2022-12-15T21:42:23.374Z,94913.50
2022-12-15T21:44:50.065Z,94904.56
2022-12-15T21:47:47.397Z,94941.00
2022-12-15T21:50:17.630Z,94901.09
2022-12-15T21:52:45.768Z,94917.66
2022-12-15T21:55:16.782Z,94917.66
2022-12-15T21:57:43.843Z,94912.16
2022-12-15T22:00:16.889Z,94910.53
2022-12-15T22:02:45.051Z,94909.03
2022-12-15T22:05:24.236Z,94922.91
2022-12-15T22:07:51.683Z,94906.09
2022-12-15T22:10:19.266Z,94922.63
2022-12-15T22:12:55.896Z,94905.59
2022-12-15T22:15:26.294Z,94872.63
2022-12-15T22:17:53.149Z,94910.56
2022-12-15T22:20:22.489Z,94917.03
2022-12-15T22:22:49.859Z,94902.69
2022-12-15T22:25:19.585Z,94876.00
2022-12-15T22:27:47.078Z,94875.34
2022-12-15T22:30:19.187Z,94903.44
2022-12-15T22:32:46.957Z,94891.91
2022-12-15T22:35:18.581Z,94868.28
2022-12-15T22:37:45.489Z,94885.56
2022-12-15T22:40:14.033Z,94862.75
2022-12-15T22:42:44.857Z,94863.81
2022-12-15T22:45:17.781Z,94868.41
2022-12-15T22:47:47.167Z,94865.75
2022-12-15T22:50:23.824Z,94825.91
2022-12-15T22:52:50.848Z,94879.50
2022-12-15T22:55:20.149Z,94871.13
2022-12-15T22:58:03.170Z,94887.06
2022-12-15T23:00:29.937Z,94875.06
2022-12-15T23:05:29.805Z,94849.56
2022-12-15T23:07:56.581Z,94885.13
2022-12-15T23:10:41.689Z,94886.03
2022-12-15T23:13:08.482Z,94903.47
2022-12-15T23:15:53.530Z,94887.88
2022-12-15T23:18:21.693Z,94888.63
2022-12-15T23:20:48.364Z,94893.19
2022-12-15T23:23:15.467Z,94889.78
2022-12-15T23:25:42.365Z,94879.56
2022-12-15T23:28:09.413Z,94890.88
2022-12-15T23:30:36.112Z,94897.66
2022-12-15T23:33:03.193Z,94887.97
2022-12-15T23:35:30.519Z,94902.09
2022-12-15T23:37:58.262Z,94889.16
2022-12-15T23:40:25.111Z,94878.34
2022-12-15T23:42:52.368Z,94896.53
2022-12-15T23:45:19.403Z,94879.94
2022-12-15T23:47:46.516Z,94842.25
2022-12-15T23:50:13.125Z,94842.91
2022-12-15T23:52:40.632Z,94865.50
2022-12-15T23:55:10.559Z,94857.31
2022-12-15T23:57:38.692Z,94870.59
